Coal Harbour, Canada
Current Conditions -  °F | °C
As of 10:00 PM on Tuesday 21 Oct 2014 (Local Time) from CYZT Reporting Station
Light Rain Light Rain  
Wind Chill: 50°   Ceiling: 4600
Heat Index: 50°   Visibility: 10mi
Dew Point: 48°   Wind: 14mph
Humidity: 94%   Direction: 110°ESE
Pressure: 29.43"   Gusts: 20mph
Location:  50.6°N, 127.58°W
Report Text: CYZT 220500Z 11012G17KT 10SM -RA SCT013 BKN046 OVC058 10/09 A2943 RMK SC3SC3SC2 SLP967
Loading
Personal Weather Stations






























Interactive Weather Map
Tropical Storm Tracking
New forecast layout! Learn more

10-Day Weather Forecast

Advertisements
Track Severe Weather on mobile